Share

Seoul E Air Base, South Korea

Seoul Air Base (RKSM) Elev 66 ft | 37.45 °N, 127.11 °E | Change Station

Current weather conditions updated 1 hour ago

Mostly Cloudy
Mostly Cloudy
59 °F
Feels Like 59 °F
N
8
Wind Variable Wind from NE
Sunrise 5:52 AM
Sunset 7:09 PM
Moon Waning Gibbous

Tomorrow is forecast to be Warmer than today.

Pressure 30.14 in
Visibility 6.2 miles
Clouds Scattered Clouds 5000 ft
Mostly Cloudy 20000 ft
Dew Point 41 °F
Humidity 51%
Rainfall 0.00 in
Snow Depth Not available.
UV 0 out of 16
Pollen Not available.
Air Quality Not available.
Flu Activity Not available.
METAR RKSM 191100Z 04007KT 9999 SCT050 BKN200 15/05 A3014

More Conditions Fewer Conditions

Pressure 30.14 in
Visibility 6.2 miles
Clouds Scattered Clouds 5000 ft
Mostly Cloudy 20000 ft
Dew Point 41 °F
Humidity 51%
Rainfall 0.00 in
Snow Depth Not available.
UV 0 out of 16
Pollen Not available.
Air Quality Not available.
Flu Activity Not available.
METAR RKSM 191100Z 04007KT 9999 SCT050 BKN200 15/05 A3014

More Conditions Fewer Conditions

10-Day Weather Forecast

Almanac

Astronomy

Apr. 19, 2014 Rise Set
Actual Time 5:52 AM KST 7:09 PM KST
Civil Twilight 5:25 AM KST 7:37 PM KST
Nautical Twilight 4:52 AM KST 8:09 PM KST
Astronomical Twilight 4:18 AM KST 8:43 PM KST
Moon 11:15 PM KST 8:38 AM KST
Length of Visible Light 14h 12m
Length of Day
13h 17m
Tomorrow will be 2m 15s longer.
Waning Gibbous, 80% of the Moon is Illuminated
Today
Waning Gibbous
Apr 22
Last Quarter
Apr 29
New
May 6
First Quarter
May 14
Full

Yesterday's Extremes

Country Highs Country Lows

Community

  • Bleeding Hearts
    Bleeding Hearts
  • Sunset Silhouettes
    Sunset Silhouettes
  • FL sunset Perico Isle
    FL sunset Perico Isle
  • Cloudy spring view
    Cloudy spring view
  • Old barn
    Old barn

WunderPhotos

Upload Photos

1,702,687 photos uploaded!

Nearby

Snow Depth

Not available.

Coastal Water Temperatures

Place Temperature
No Stations Reporting

Earthquake Activity

City Distance Mag. Time & Date
No recent earthquake activity has been reported nearby.
Minimum magnitude displayed is 2.5.

Nearby Weather Stations

Station Location Temp. Dew Point Humidity Wind Precip. Elev Updated Type
Bucheon3 58.9 °F 46 °F 63% ESE  at  2.0 mph 0.00 in / hr 115 ft 8:52 PM KST Normal

Show More Stations Show Fewer Stations

What do you think?

We're not finished. Please let us know what you like, what you don't like, and what you are still missing.